createdAt,value
2022-10-04T00:01:54.510Z,100921.44
2022-10-04T00:04:28.711Z,100907.13
2022-10-04T00:07:01.934Z,100904.06
2022-10-04T00:09:36.321Z,100897.91
2022-10-04T00:12:07.532Z,100892.78
2022-10-04T00:14:40.198Z,100897.28
2022-10-04T00:17:13.624Z,100898.94
2022-10-04T00:19:45.753Z,100909.78
2022-10-04T00:22:22.687Z,100901.78
2022-10-04T00:25:18.777Z,100888.28
2022-10-04T00:28:28.702Z,100882.16
2022-10-04T00:31:14.939Z,100881.34
2022-10-04T00:33:44.794Z,100881.75
2022-10-04T00:36:52.384Z,100874.81
2022-10-04T00:39:39.980Z,100865.78
2022-10-04T00:42:50.274Z,100839.38
2022-10-04T00:45:28.654Z,100844.09
2022-10-04T00:48:16.166Z,100833.25
2022-10-04T00:50:50.401Z,100835.09
2022-10-04T00:53:25.011Z,100824.88
2022-10-04T00:55:57.142Z,100828.75
2022-10-04T00:58:28.571Z,100823.63
2022-10-04T01:00:59.076Z,100818.94
2022-10-04T01:03:31.806Z,100814.00
2022-10-04T01:06:05.488Z,100790.28
2022-10-04T01:08:35.912Z,100796.00
2022-10-04T01:11:08.078Z,100794.97
2022-10-04T01:13:41.108Z,100792.31
2022-10-04T01:16:17.142Z,100783.94
2022-10-04T01:18:46.033Z,100775.97
2022-10-04T01:21:27.291Z,100771.44
2022-10-04T01:24:17.747Z,100775.75
2022-10-04T01:26:47.551Z,100793.34
2022-10-04T01:29:18.674Z,100790.06
2022-10-04T01:31:48.660Z,100779.00
2022-10-04T01:34:19.265Z,100796.63
2022-10-04T01:36:49.355Z,100797.84
2022-10-04T01:39:20.850Z,100801.31
2022-10-04T01:41:54.136Z,100780.84
2022-10-04T01:44:29.913Z,100757.53
2022-10-04T01:47:02.941Z,100763.69
2022-10-04T01:49:35.651Z,100757.72
2022-10-04T01:52:08.653Z,100753.25
2022-10-04T01:54:43.699Z,100747.06
2022-10-04T01:57:17.382Z,100738.09
2022-10-04T01:59:51.633Z,100734.00
2022-10-04T02:02:26.633Z,100739.75
2022-10-04T02:04:59.185Z,100726.44
2022-10-04T02:07:32.575Z,100715.81
2022-10-04T02:10:06.358Z,100713.97
2022-10-04T02:12:36.026Z,100702.06
2022-10-04T02:15:07.998Z,100697.78
2022-10-04T02:17:43.134Z,100696.75
2022-10-04T02:20:16.436Z,100687.13
2022-10-04T02:22:46.413Z,100681.41
2022-10-04T02:25:17.289Z,100684.28
2022-10-04T02:27:45.641Z,100684.06
2022-10-04T02:30:14.843Z,100682.00
2022-10-04T02:33:00.044Z,100683.66
2022-10-04T02:35:31.097Z,100684.06
2022-10-04T02:38:11.032Z,100674.00
2022-10-04T02:40:46.674Z,100670.53
2022-10-04T02:43:20.083Z,100664.81
2022-10-04T02:45:51.977Z,100670.34
2022-10-04T02:48:36.855Z,100646.59
2022-10-04T02:51:18.828Z,100645.19
2022-10-04T02:53:53.677Z,100660.72
2022-10-04T02:56:25.318Z,100641.50
2022-10-04T02:58:54.561Z,100634.09
2022-10-04T03:01:28.577Z,100631.66
2022-10-04T03:03:58.372Z,100632.47
2022-10-04T03:06:33.158Z,100626.56
2022-10-04T03:09:04.514Z,100607.94
2022-10-04T03:11:37.309Z,100634.53
2022-10-04T03:14:10.545Z,100605.06
2022-10-04T03:16:41.965Z,100627.16
2022-10-04T03:19:11.008Z,100632.47
2022-10-04T03:21:41.752Z,100619.41
2022-10-04T03:24:15.589Z,100623.47
2022-10-04T03:26:47.945Z,100623.91
2022-10-04T03:29:19.309Z,100625.53
2022-10-04T03:31:50.526Z,100610.38
2022-10-04T03:34:21.961Z,100590.94
2022-10-04T03:36:52.357Z,100588.88
2022-10-04T03:39:28.913Z,100588.88
2022-10-04T03:41:59.142Z,100590.53
2022-10-04T03:44:27.639Z,100597.47
2022-10-04T03:46:56.280Z,100594.00
2022-10-04T03:49:34.185Z,100584.16
2022-10-04T03:52:04.240Z,100585.38
2022-10-04T03:54:33.859Z,100583.09
2022-10-04T03:57:04.067Z,100579.19
2022-10-04T03:59:32.257Z,100576.75
2022-10-04T04:02:11.365Z,100574.69
2022-10-04T04:04:50.530Z,100580.81
2022-10-04T04:07:25.089Z,100571.00
2022-10-04T04:09:59.689Z,100571.00
2022-10-04T04:12:39.748Z,100561.16
2022-10-04T04:15:12.055Z,100553.19
2022-10-04T04:17:42.617Z,100550.50
2022-10-04T04:20:29.023Z,100550.50
2022-10-04T04:23:02.044Z,100546.84
2022-10-04T04:25:33.283Z,100545.81
2022-10-04T04:28:14.775Z,100538.00
2022-10-04T04:30:47.541Z,100513.44
2022-10-04T04:33:32.640Z,100517.13
2022-10-04T04:36:06.489Z,100518.97
2022-10-04T04:38:35.577Z,100524.91
2022-10-04T04:41:11.171Z,100499.31
2022-10-04T04:43:45.164Z,100500.97
2022-10-04T04:46:29.454Z,100489.91
2022-10-04T04:49:04.004Z,100487.03
2022-10-04T04:51:34.385Z,100488.47
2022-10-04T04:54:05.080Z,100489.91
2022-10-04T04:56:34.270Z,100490.31
2022-10-04T04:59:07.652Z,100502.78
2022-10-04T05:01:37.488Z,100503.81
2022-10-04T05:04:16.243Z,100508.09
2022-10-04T05:06:46.998Z,100507.09
2022-10-04T05:09:24.803Z,100504.03
2022-10-04T05:11:57.386Z,100496.63
2022-10-04T05:14:27.425Z,100501.78
2022-10-04T05:16:56.741Z,100491.94
2022-10-04T05:19:30.647Z,100487.44
2022-10-04T05:22:01.165Z,100479.66
2022-10-04T05:24:31.823Z,100476.56
2022-10-04T05:27:02.949Z,100470.66
2022-10-04T05:29:35.700Z,100455.09
2022-10-04T05:32:20.737Z,100462.69
2022-10-04T05:34:51.613Z,100447.19
2022-10-04T05:37:42.888Z,100451.47
2022-10-04T05:40:28.902Z,100433.25
2022-10-04T05:42:58.454Z,100422.84
2022-10-04T05:45:30.119Z,100419.94
2022-10-04T05:47:59.930Z,100419.13
2022-10-04T05:50:33.321Z,100397.84
2022-10-04T05:53:20.745Z,100403.16
2022-10-04T05:55:58.384Z,100392.13
2022-10-04T05:58:48.334Z,100390.09
2022-10-04T06:01:31.562Z,100379.69
2022-10-04T06:04:48.560Z,100385.00
2022-10-04T06:07:24.474Z,100374.13
2022-10-04T06:10:28.261Z,100372.50
2022-10-04T06:13:03.471Z,100358.97
2022-10-04T06:15:57.656Z,100363.88
2022-10-04T06:18:43.460Z,100363.63
2022-10-04T06:21:23.660Z,100351.97
2022-10-04T06:24:00.536Z,100343.53
2022-10-04T06:26:35.783Z,100340.44
2022-10-04T06:29:12.218Z,100322.63
2022-10-04T06:32:12.210Z,100314.44
2022-10-04T06:35:02.139Z,100317.47
2022-10-04T06:37:52.545Z,100307.81
2022-10-04T06:40:49.744Z,100308.06
2022-10-04T06:43:47.322Z,100292.75
2022-10-04T06:46:23.334Z,100294.16
2022-10-04T06:49:19.399Z,100282.91
2022-10-04T06:52:13.505Z,100275.75
2022-10-04T06:54:58.198Z,100273.53
2022-10-04T06:57:51.262Z,100259.44
2022-10-04T07:00:23.183Z,100252.41
2022-10-04T07:02:54.936Z,100259.09
2022-10-04T07:05:30.734Z,100250.25
2022-10-04T07:08:11.131Z,100251.06
2022-10-04T07:10:48.400Z,100242.41
2022-10-04T07:13:41.653Z,100242.03
2022-10-04T07:16:24.659Z,100228.28
2022-10-04T07:19:11.244Z,100233.38
2022-10-04T07:21:46.752Z,100238.72
2022-10-04T07:24:25.810Z,100246.13
2022-10-04T07:26:56.301Z,100250.59
2022-10-04T07:29:28.269Z,100241.13
2022-10-04T07:32:08.650Z,100243.81
2022-10-04T07:34:41.512Z,100241.13
2022-10-04T07:37:13.017Z,100223.13
2022-10-04T07:39:50.553Z,100216.75
2022-10-04T07:42:26.570Z,100220.78
2022-10-04T07:45:07.264Z,100223.47
2022-10-04T07:47:35.517Z,100218.13
2022-10-04T07:50:21.698Z,100226.72
2022-10-04T07:52:54.895Z,100215.63
2022-10-04T07:55:29.939Z,100210.06
2022-10-04T07:58:41.029Z,100222.59
2022-10-04T08:01:25.065Z,100231.97
2022-10-04T08:04:13.053Z,100224.34
2022-10-04T08:06:53.647Z,100228.19
2022-10-04T08:09:43.462Z,100226.91
2022-10-04T08:12:21.758Z,100238.75
2022-10-04T08:14:55.922Z,100234.22
2022-10-04T08:17:41.829Z,100234.81
2022-10-04T08:20:30.636Z,100239.91
2022-10-04T08:23:09.099Z,100235.41
2022-10-04T08:25:48.229Z,100231.13
2022-10-04T08:28:46.339Z,100233.34
2022-10-04T08:31:27.690Z,100233.78
2022-10-04T08:34:13.497Z,100233.53
2022-10-04T08:36:54.785Z,100246.19
2022-10-04T08:39:37.332Z,100242.50
2022-10-04T08:42:33.246Z,100251.88
2022-10-04T08:45:34.907Z,100253.38
2022-10-04T08:48:38.783Z,100240.06
2022-10-04T08:51:32.043Z,100259.75
2022-10-04T08:54:25.559Z,100248.78
2022-10-04T08:57:06.534Z,100243.47
2022-10-04T09:00:00.208Z,100245.06
2022-10-04T09:03:05.675Z,100227.00
2022-10-04T09:05:47.782Z,100225.88
2022-10-04T09:08:52.804Z,100200.69
2022-10-04T09:11:46.936Z,100223.97
2022-10-04T09:14:36.032Z,100205.91
2022-10-04T09:17:22.490Z,100205.66
2022-10-04T09:20:13.947Z,100214.47
2022-10-04T09:22:51.513Z,100206.69
2022-10-04T09:25:49.412Z,100211.00
2022-10-04T09:29:01.148Z,100211.94
2022-10-04T09:32:03.015Z,100212.53
2022-10-04T09:34:42.774Z,100200.38
2022-10-04T09:37:26.268Z,100204.41
2022-10-04T09:40:38.006Z,100218.56
2022-10-04T09:43:35.152Z,100216.47
2022-10-04T09:46:29.795Z,100229.38
2022-10-04T09:49:09.515Z,100216.16
2022-10-04T09:52:02.972Z,100216.16
2022-10-04T09:54:56.961Z,100207.13
2022-10-04T09:57:39.324Z,100223.09
2022-10-04T10:00:24.946Z,100247.09
2022-10-04T10:03:47.407Z,100261.13
2022-10-04T10:06:37.568Z,100279.28
2022-10-04T10:09:19.764Z,100275.81
2022-10-04T10:12:17.496Z,100269.31
2022-10-04T10:15:16.989Z,100236.81
2022-10-04T10:17:56.349Z,100196.38
2022-10-04T10:21:09.855Z,100211.38
2022-10-04T10:23:56.928Z,100226.19
2022-10-04T10:26:39.593Z,100228.28
2022-10-04T10:29:26.256Z,100243.31
2022-10-04T10:32:21.453Z,100262.97
2022-10-04T10:35:19.259Z,100269.72
2022-10-04T10:38:04.837Z,100281.88
2022-10-04T10:40:53.997Z,100289.47
2022-10-04T10:43:46.663Z,100295.47
2022-10-04T10:46:28.639Z,100301.84
2022-10-04T10:49:22.367Z,100293.28
2022-10-04T10:52:25.665Z,100269.69
2022-10-04T10:55:27.025Z,100254.03
2022-10-04T10:58:22.889Z,100251.19
2022-10-04T11:01:01.444Z,100251.31
2022-10-04T11:03:57.286Z,100214.34
2022-10-04T11:06:57.130Z,100226.56
2022-10-04T11:09:35.427Z,100232.19
2022-10-04T11:12:42.863Z,100234.97
2022-10-04T11:15:49.856Z,100209.72
2022-10-04T11:18:51.355Z,100212.75
2022-10-04T11:21:55.788Z,100204.97
2022-10-04T11:25:02.087Z,100199.19
2022-10-04T11:27:49.680Z,100202.66
2022-10-04T11:30:25.234Z,100201.63
2022-10-04T11:33:40.777Z,100202.91
2022-10-04T11:36:31.191Z,100198.75
2022-10-04T11:39:25.465Z,100195.41
2022-10-04T11:42:02.469Z,100197.81
2022-10-04T11:44:55.390Z,100198.63
2022-10-04T11:47:49.720Z,100209.06
2022-10-04T11:50:29.815Z,100206.63
2022-10-04T11:53:31.173Z,100203.41
2022-10-04T11:56:17.509Z,100212.31
2022-10-04T11:58:58.502Z,100209.88
2022-10-04T12:01:46.959Z,100205.50
2022-10-04T12:04:41.738Z,100216.50
2022-10-04T12:07:31.579Z,100215.22
2022-10-04T12:10:15.009Z,100199.09
2022-10-04T12:13:04.268Z,100218.94
2022-10-04T12:15:45.541Z,100217.44
2022-10-04T12:18:44.287Z,100241.34
2022-10-04T12:21:34.914Z,100242.16
2022-10-04T12:24:29.258Z,100247.38
2022-10-04T12:27:14.711Z,100253.88
2022-10-04T12:30:15.734Z,100258.88
2022-10-04T12:32:58.419Z,100253.88
2022-10-04T12:35:36.868Z,100260.59
2022-10-04T12:38:22.501Z,100256.88
2022-10-04T12:41:01.235Z,100242.44
2022-10-04T12:43:38.485Z,100256.13
2022-10-04T12:46:26.418Z,100264.69
2022-10-04T12:49:08.532Z,100293.13
2022-10-04T12:51:44.465Z,100317.50
2022-10-04T12:54:24.871Z,100307.53
2022-10-04T12:57:07.702Z,100293.13
2022-10-04T12:59:50.392Z,100278.72
2022-10-04T13:02:50.221Z,100299.53
2022-10-04T13:05:24.733Z,100331.41
2022-10-04T13:08:32.555Z,100345.94
2022-10-04T13:11:39.818Z,100353.59
2022-10-04T13:14:56.131Z,100340.69
2022-10-04T13:17:36.692Z,100358.81
2022-10-04T13:20:31.294Z,100361.06
2022-10-04T13:23:05.327Z,100364.22
2022-10-04T13:26:03.959Z,100376.03
2022-10-04T13:28:41.293Z,100376.47
2022-10-04T13:31:16.909Z,100373.47
2022-10-04T13:33:52.592Z,100367.31
2022-10-04T13:36:30.602Z,100364.31
2022-10-04T13:39:31.492Z,100380.50
2022-10-04T13:42:15.203Z,100389.56
2022-10-04T13:45:06.092Z,100387.13
2022-10-04T13:47:57.084Z,100377.72
2022-10-04T13:50:38.789Z,100366.47
2022-10-04T13:53:41.507Z,100361.38
2022-10-04T13:56:40.097Z,100337.22
2022-10-04T13:59:18.697Z,100331.88
2022-10-04T14:02:21.273Z,100343.03
2022-10-04T14:05:19.026Z,100327.03
2022-10-04T14:08:21.510Z,100309.63
2022-10-04T14:11:09.291Z,100298.94
2022-10-04T14:14:04.312Z,100321.09
2022-10-04T14:17:14.161Z,100341.84
2022-10-04T14:20:31.404Z,100342.91
2022-10-04T14:23:23.450Z,100329.19
2022-10-04T14:26:30.173Z,100320.25
2022-10-04T14:29:28.958Z,100305.53
2022-10-04T14:32:45.894Z,100277.00
2022-10-04T14:35:21.965Z,100261.59
2022-10-04T14:38:31.750Z,100274.94
2022-10-04T14:41:41.454Z,100276.09
2022-10-04T14:44:34.880Z,100257.78
2022-10-04T14:47:20.025Z,100253.25
2022-10-04T14:50:05.274Z,100263.34
2022-10-04T14:52:46.727Z,100269.84
2022-10-04T14:55:31.299Z,100274.13
2022-10-04T14:58:17.500Z,100286.91
2022-10-04T15:01:19.112Z,100277.50
2022-10-04T15:03:51.465Z,100272.16
2022-10-04T15:06:36.820Z,100267.63
2022-10-04T15:09:31.038Z,100280.16
2022-10-04T15:12:29.644Z,100274.69
2022-10-04T15:15:21.323Z,100281.19
2022-10-04T15:18:04.216Z,100267.31
2022-10-04T15:20:39.143Z,100275.75
2022-10-04T15:23:17.109Z,100278.66
2022-10-04T15:25:48.156Z,100266.34
2022-10-04T15:28:41.960Z,100269.81
2022-10-04T15:31:17.486Z,100262.38
2022-10-04T15:33:56.628Z,100262.59
2022-10-04T15:36:39.777Z,100256.34
2022-10-04T15:39:41.241Z,100242.53
2022-10-04T15:42:14.891Z,100237.31
2022-10-04T15:45:22.884Z,100238.31
2022-10-04T15:48:11.402Z,100232.69
2022-10-04T15:50:56.061Z,100232.25
2022-10-04T15:53:50.924Z,100228.78
2022-10-04T15:56:37.667Z,100229.47
2022-10-04T15:59:36.428Z,100231.44
2022-10-04T16:02:48.747Z,100231.06
2022-10-04T16:05:25.516Z,100234.78
2022-10-04T16:08:33.406Z,100241.28
2022-10-04T16:11:15.089Z,100224.84
2022-10-04T16:13:56.984Z,100224.03
2022-10-04T16:16:48.474Z,100219.16
2022-10-04T16:19:34.483Z,100206.06
2022-10-04T16:22:16.429Z,100208.72
2022-10-04T16:24:51.468Z,100209.19
2022-10-04T16:27:46.246Z,100203.63
2022-10-04T16:30:27.036Z,100200.34
2022-10-04T16:33:15.121Z,100196.88
2022-10-04T16:35:49.358Z,100199.22
2022-10-04T16:38:25.794Z,100187.72
2022-10-04T16:41:14.519Z,100185.28
2022-10-04T16:43:52.955Z,100172.66
2022-10-04T16:46:30.999Z,100164.09
2022-10-04T16:49:02.380Z,100166.16
2022-10-04T16:51:40.601Z,100158.41
2022-10-04T16:54:32.379Z,100138.34
2022-10-04T16:57:14.700Z,100147.84
2022-10-04T16:59:51.433Z,100161.25
2022-10-04T17:02:51.665Z,100160.44
2022-10-04T17:05:39.508Z,100160.28
2022-10-04T17:08:25.920Z,100146.41
2022-10-04T17:11:39.453Z,100133.78
2022-10-04T17:14:32.193Z,100140.34
2022-10-04T17:17:03.276Z,100126.22
2022-10-04T17:19:35.578Z,100127.28
2022-10-04T17:22:21.847Z,100126.91
2022-10-04T17:25:02.178Z,100123.50
2022-10-04T17:27:47.219Z,100115.88
2022-10-04T17:30:18.943Z,100106.84
2022-10-04T17:33:17.900Z,100090.09
2022-10-04T17:36:23.185Z,100097.56
2022-10-04T17:39:03.398Z,100088.56
2022-10-04T17:41:50.747Z,100073.16
2022-10-04T17:44:34.395Z,100068.88
2022-10-04T17:47:14.102Z,100063.56
2022-10-04T17:50:10.992Z,100054.03
2022-10-04T17:53:02.753Z,100057.19
2022-10-04T17:55:38.490Z,100064.66
2022-10-04T17:58:17.110Z,100061.38
2022-10-04T18:00:54.057Z,100056.41
2022-10-04T18:03:26.828Z,100053.38
2022-10-04T18:05:59.397Z,100041.53
2022-10-04T18:08:41.488Z,100032.97
2022-10-04T18:11:22.125Z,100015.84
2022-10-04T18:14:00.792Z,100000.22
2022-10-04T18:16:32.107Z,100017.81
2022-10-04T18:19:24.456Z,100026.47
2022-10-04T18:21:54.447Z,100037.91
2022-10-04T18:24:29.521Z,100044.47
2022-10-04T18:27:05.136Z,100044.34
2022-10-04T18:29:40.128Z,100045.38
2022-10-04T18:32:31.798Z,100031.84
2022-10-04T18:35:00.830Z,100037.41
2022-10-04T18:37:34.746Z,100016.72
2022-10-04T18:40:15.212Z,100018.34
2022-10-04T18:42:44.967Z,100012.00
2022-10-04T18:45:31.542Z,100013.59
2022-10-04T18:48:02.576Z,100026.34
2022-10-04T18:50:35.741Z,100028.38
2022-10-04T18:53:21.555Z,100027.34
2022-10-04T18:55:59.708Z,100019.59
2022-10-04T18:58:59.349Z,100020.03
2022-10-04T19:02:03.707Z,100011.47
2022-10-04T19:05:02.240Z,99997.16
2022-10-04T19:07:40.153Z,100001.22
2022-10-04T19:10:17.944Z,100007.34
2022-10-04T19:12:57.879Z,100000.19
2022-10-04T19:15:43.005Z,99996.25
2022-10-04T19:18:29.334Z,99993.00
2022-10-04T19:21:05.294Z,100005.06
2022-10-04T19:23:42.483Z,100010.56
2022-10-04T19:29:14.820Z,100031.19
2022-10-04T19:31:54.037Z,100023.31
2022-10-04T19:34:35.630Z,100022.69
2022-10-04T19:37:12.923Z,100021.22
2022-10-04T19:39:55.315Z,100017.75
2022-10-04T19:42:33.534Z,100016.13
2022-10-04T19:45:18.895Z,100022.50
2022-10-04T19:47:52.975Z,100012.88
2022-10-04T19:50:26.241Z,100022.13
2022-10-04T19:53:01.379Z,100024.53
2022-10-04T19:55:43.255Z,99996.25
2022-10-04T19:58:34.075Z,99978.28
2022-10-04T20:01:03.602Z,99982.00
2022-10-04T20:03:35.476Z,99989.97
2022-10-04T20:06:09.580Z,100013.09
2022-10-04T20:09:01.832Z,99998.31
2022-10-04T20:11:50.402Z,99988.06
2022-10-04T20:14:56.067Z,99977.84
2022-10-04T20:17:35.555Z,99985.97
2022-10-04T20:20:04.669Z,99981.47
2022-10-04T20:23:01.316Z,99990.09
2022-10-04T20:26:09.095Z,99988.72
2022-10-04T20:28:45.798Z,99991.75
2022-10-04T20:31:48.515Z,99989.69
2022-10-04T20:34:49.912Z,99989.78
2022-10-04T20:37:20.138Z,99977.50
2022-10-04T20:40:02.525Z,99974.03
2022-10-04T20:42:39.911Z,99981.19
2022-10-04T20:45:23.961Z,99982.47
2022-10-04T20:47:58.257Z,99986.50
2022-10-04T20:50:43.658Z,99978.75
2022-10-04T20:53:22.001Z,99974.50
2022-10-04T20:55:58.901Z,99970.78
2022-10-04T20:58:33.163Z,99978.09
2022-10-04T21:01:14.302Z,99974.63
2022-10-04T21:03:48.173Z,99961.31
2022-10-04T21:06:17.537Z,99960.28
2022-10-04T21:08:47.256Z,99957.63
2022-10-04T21:11:23.036Z,99956.81
2022-10-04T21:13:55.887Z,99947.66
2022-10-04T21:16:47.566Z,99941.97
2022-10-04T21:19:47.711Z,99932.16
2022-10-04T21:22:47.694Z,99936.09
2022-10-04T21:25:35.800Z,99927.06
2022-10-04T21:28:37.401Z,99926.03
2022-10-04T21:31:07.177Z,99926.03
2022-10-04T21:33:38.787Z,99923.38
2022-10-04T21:36:08.500Z,99913.53
2022-10-04T21:38:37.873Z,99905.56
2022-10-04T21:41:07.230Z,99901.06
2022-10-04T21:43:37.124Z,99896.56
2022-10-04T21:46:06.148Z,99899.81
2022-10-04T21:48:34.617Z,99901.66
2022-10-04T21:51:02.896Z,99901.41
2022-10-04T21:53:31.239Z,99897.94
2022-10-04T21:55:59.441Z,99896.34
2022-10-04T21:58:27.544Z,99878.97
2022-10-04T22:00:57.109Z,99873.22
2022-10-04T22:03:25.196Z,99871.81
2022-10-04T22:05:53.314Z,99874.47
2022-10-04T22:08:21.439Z,99874.47
2022-10-04T22:10:52.229Z,99868.56
2022-10-04T22:13:22.302Z,99861.41
2022-10-04T22:15:50.466Z,99865.69
2022-10-04T22:18:20.102Z,99861.16
2022-10-04T22:20:48.175Z,99858.50
2022-10-04T22:23:19.642Z,99857.25
2022-10-04T22:25:48.222Z,99865.22
2022-10-04T22:28:22.080Z,99863.38
2022-10-04T22:30:50.814Z,99866.03
2022-10-04T22:33:36.184Z,99860.97
2022-10-04T22:36:14.531Z,99860.72
2022-10-04T22:38:43.915Z,99858.19
2022-10-04T22:41:13.577Z,99860.41
2022-10-04T22:43:41.963Z,99853.47
2022-10-04T22:46:16.201Z,99844.88
2022-10-04T22:48:47.224Z,99850.22
2022-10-04T22:51:16.513Z,99844.31
2022-10-04T22:53:46.152Z,99851.50
2022-10-04T22:56:15.196Z,99848.84
2022-10-04T22:58:44.129Z,99847.19
2022-10-04T23:01:14.075Z,99831.84
2022-10-04T23:03:48.455Z,99817.94
2022-10-04T23:06:17.222Z,99811.81
2022-10-04T23:08:45.809Z,99803.28
2022-10-04T23:11:13.986Z,99801.41
2022-10-04T23:13:42.117Z,99791.03
2022-10-04T23:16:14.551Z,99787.31
2022-10-04T23:18:42.835Z,99775.06
2022-10-04T23:21:22.803Z,99774.25
2022-10-04T23:23:52.996Z,99761.16
2022-10-04T23:26:24.880Z,99742.81
2022-10-04T23:28:53.449Z,99746.13
2022-10-04T23:31:25.075Z,99735.75
2022-10-04T23:33:56.151Z,99739.69
2022-10-04T23:36:26.197Z,99739.81
2022-10-04T23:38:58.285Z,99739.31
2022-10-04T23:41:26.985Z,99734.50
2022-10-04T23:43:55.398Z,99724.88
2022-10-04T23:46:25.097Z,99715.03
2022-10-04T23:48:53.421Z,99707.41
2022-10-04T23:51:21.817Z,99700.72
2022-10-04T23:53:51.785Z,99695.41
2022-10-04T23:56:23.111Z,99706.97
2022-10-04T23:58:52.856Z,99696.09
